sensor_id;sensor_type;location;lat;lon;timestamp;P1;durP1;ratioP1;P2;durP2;ratioP2
52266;SDS011;38223;50.940;4.034;2022-09-17T00:04:03;6.50;;;0.93;;
52266;SDS011;38223;50.940;4.034;2022-09-17T00:06:36;6.75;;;1.47;;
52266;SDS011;38223;50.940;4.034;2022-09-17T00:09:08;8.15;;;1.22;;
52266;SDS011;38223;50.940;4.034;2022-09-17T00:11:45;7.90;;;1.10;;
52266;SDS011;38223;50.940;4.034;2022-09-17T00:14:17;5.95;;;1.10;;
52266;SDS011;38223;50.940;4.034;2022-09-17T00:16:53;8.40;;;0.90;;
52266;SDS011;38223;50.940;4.034;2022-09-17T00:19:23;7.37;;;1.25;;
52266;SDS011;38223;50.940;4.034;2022-09-17T00:22:00;4.92;;;1.55;;
52266;SDS011;38223;50.940;4.034;2022-09-17T00:24:36;9.18;;;1.45;;
52266;SDS011;38223;50.940;4.034;2022-09-17T00:27:13;11.90;;;1.75;;
52266;SDS011;38223;50.940;4.034;2022-09-17T00:29:43;8.65;;;1.10;;
52266;SDS011;38223;50.940;4.034;2022-09-17T00:32:17;6.95;;;1.50;;
52266;SDS011;38223;50.940;4.034;2022-09-17T00:34:46;11.18;;;1.50;;
52266;SDS011;38223;50.940;4.034;2022-09-17T00:37:20;11.85;;;1.57;;
52266;SDS011;38223;50.940;4.034;2022-09-17T00:39:51;10.25;;;1.32;;
52266;SDS011;38223;50.940;4.034;2022-09-17T00:42:28;8.55;;;1.60;;
52266;SDS011;38223;50.940;4.034;2022-09-17T00:44:56;9.10;;;1.32;;
52266;SDS011;38223;50.940;4.034;2022-09-17T00:47:28;12.90;;;1.80;;
52266;SDS011;38223;50.940;4.034;2022-09-17T00:50:07;9.63;;;1.50;;
52266;SDS011;38223;50.940;4.034;2022-09-17T00:52:49;5.60;;;1.10;;
52266;SDS011;38223;50.940;4.034;2022-09-17T00:55:29;11.05;;;1.60;;
52266;SDS011;38223;50.940;4.034;2022-09-17T00:58:07;10.93;;;1.98;;
52266;SDS011;38223;50.940;4.034;2022-09-17T01:00:39;5.97;;;1.30;;
52266;SDS011;38223;50.940;4.034;2022-09-17T01:03:14;11.48;;;2.00;;
52266;SDS011;38223;50.940;4.034;2022-09-17T01:05:50;14.65;;;1.67;;
52266;SDS011;38223;50.940;4.034;2022-09-17T01:17:41;9.53;;;1.70;;
52266;SDS011;38223;50.940;4.034;2022-09-17T01:20:21;9.30;;;2.15;;
52266;SDS011;38223;50.940;4.034;2022-09-17T01:25:48;9.53;;;1.87;;
52266;SDS011;38223;50.940;4.034;2022-09-17T01:34:10;17.23;;;2.27;;
52266;SDS011;38223;50.940;4.034;2022-09-17T01:36:41;10.72;;;2.40;;
52266;SDS011;38223;50.940;4.034;2022-09-17T01:39:30;7.22;;;1.85;;
52266;SDS011;38223;50.940;4.034;2022-09-17T01:42:37;8.10;;;1.72;;
52266;SDS011;38223;50.940;4.034;2022-09-17T01:47:57;9.50;;;2.15;;
52266;SDS011;38223;50.940;4.034;2022-09-17T01:50:36;11.25;;;1.98;;
52266;SDS011;38223;50.940;4.034;2022-09-17T01:53:08;5.85;;;1.30;;
52266;SDS011;38223;50.940;4.034;2022-09-17T01:55:45;10.23;;;2.17;;
52266;SDS011;38223;50.940;4.034;2022-09-17T01:58:19;13.50;;;1.90;;
52266;SDS011;38223;50.940;4.034;2022-09-17T02:00:57;9.90;;;2.27;;
52266;SDS011;38223;50.940;4.034;2022-09-17T02:03:35;10.03;;;1.52;;
52266;SDS011;38223;50.940;4.034;2022-09-17T02:06:09;8.68;;;1.72;;
52266;SDS011;38223;50.940;4.034;2022-09-17T02:08:53;10.65;;;1.82;;
52266;SDS011;38223;50.940;4.034;2022-09-17T02:11:32;9.33;;;1.80;;
52266;SDS011;38223;50.940;4.034;2022-09-17T02:14:12;10.68;;;2.72;;
52266;SDS011;38223;50.940;4.034;2022-09-17T02:16:47;13.95;;;2.10;;
52266;SDS011;38223;50.940;4.034;2022-09-17T02:19:22;9.60;;;3.17;;
52266;SDS011;38223;50.940;4.034;2022-09-17T02:22:11;18.57;;;2.55;;
52266;SDS011;38223;50.940;4.034;2022-09-17T02:27:47;11.73;;;2.67;;
52266;SDS011;38223;50.940;4.034;2022-09-17T02:30:24;9.28;;;1.90;;
52266;SDS011;38223;50.940;4.034;2022-09-17T02:32:58;11.80;;;2.62;;
52266;SDS011;38223;50.940;4.034;2022-09-17T02:35:31;12.73;;;2.40;;
52266;SDS011;38223;50.940;4.034;2022-09-17T02:38:06;14.10;;;2.55;;
52266;SDS011;38223;50.940;4.034;2022-09-17T02:40:45;13.32;;;2.10;;
52266;SDS011;38223;50.940;4.034;2022-09-17T02:43:23;16.15;;;2.87;;
52266;SDS011;38223;50.940;4.034;2022-09-17T02:54:52;9.10;;;1.92;;
52266;SDS011;38223;50.940;4.034;2022-09-17T02:57:39;11.38;;;2.42;;
52266;SDS011;38223;50.940;4.034;2022-09-17T03:00:15;11.12;;;2.00;;
52266;SDS011;38223;50.940;4.034;2022-09-17T03:02:58;16.25;;;2.12;;
52266;SDS011;38223;50.940;4.034;2022-09-17T03:05:31;14.07;;;2.27;;
52266;SDS011;38223;50.940;4.034;2022-09-17T03:08:07;12.93;;;2.37;;
52266;SDS011;38223;50.940;4.034;2022-09-17T03:10:43;15.48;;;2.47;;
52266;SDS011;38223;50.940;4.034;2022-09-17T03:13:16;21.77;;;2.98;;
52266;SDS011;38223;50.940;4.034;2022-09-17T03:15:51;15.28;;;2.33;;
52266;SDS011;38223;50.940;4.034;2022-09-17T03:18:22;13.38;;;2.72;;
52266;SDS011;38223;50.940;4.034;2022-09-17T03:20:55;17.12;;;2.70;;
52266;SDS011;38223;50.940;4.034;2022-09-17T03:23:32;18.55;;;3.02;;
52266;SDS011;38223;50.940;4.034;2022-09-17T03:26:06;20.15;;;2.70;;
52266;SDS011;38223;50.940;4.034;2022-09-17T03:28:43;14.75;;;2.75;;
52266;SDS011;38223;50.940;4.034;2022-09-17T03:31:17;17.92;;;2.47;;
52266;SDS011;38223;50.940;4.034;2022-09-17T03:33:50;17.35;;;2.25;;
52266;SDS011;38223;50.940;4.034;2022-09-17T03:36:25;14.15;;;1.82;;
52266;SDS011;38223;50.940;4.034;2022-09-17T03:39:00;17.77;;;2.83;;
52266;SDS011;38223;50.940;4.034;2022-09-17T03:41:34;18.37;;;3.25;;
52266;SDS011;38223;50.940;4.034;2022-09-17T03:44:10;20.17;;;2.45;;
52266;SDS011;38223;50.940;4.034;2022-09-17T03:46:41;19.50;;;3.02;;
52266;SDS011;38223;50.940;4.034;2022-09-17T03:49:13;13.20;;;2.98;;
52266;SDS011;38223;50.940;4.034;2022-09-17T03:51:44;26.37;;;3.27;;
52266;SDS011;38223;50.940;4.034;2022-09-17T03:54:18;13.43;;;2.70;;
52266;SDS011;38223;50.940;4.034;2022-09-17T03:56:50;20.92;;;3.15;;
52266;SDS011;38223;50.940;4.034;2022-09-17T03:59:24;17.10;;;3.00;;
52266;SDS011;38223;50.940;4.034;2022-09-17T04:01:58;21.80;;;3.40;;
52266;SDS011;38223;50.940;4.034;2022-09-17T04:04:29;17.20;;;3.30;;
52266;SDS011;38223;50.940;4.034;2022-09-17T04:07:13;12.05;;;2.67;;
52266;SDS011;38223;50.940;4.034;2022-09-17T04:09:47;16.50;;;2.62;;
52266;SDS011;38223;50.940;4.034;2022-09-17T04:12:31;13.00;;;2.65;;
52266;SDS011;38223;50.940;4.034;2022-09-17T04:15:10;17.77;;;3.15;;
52266;SDS011;38223;50.940;4.034;2022-09-17T04:17:45;14.23;;;2.37;;
52266;SDS011;38223;50.940;4.034;2022-09-17T04:20:21;16.97;;;2.27;;
52266;SDS011;38223;50.940;4.034;2022-09-17T04:23:00;16.17;;;2.30;;
52266;SDS011;38223;50.940;4.034;2022-09-17T04:25:37;13.95;;;1.87;;
52266;SDS011;38223;50.940;4.034;2022-09-17T04:28:10;18.12;;;2.12;;
52266;SDS011;38223;50.940;4.034;2022-09-17T04:30:59;17.00;;;2.45;;
52266;SDS011;38223;50.940;4.034;2022-09-17T04:33:34;10.15;;;2.45;;
52266;SDS011;38223;50.940;4.034;2022-09-17T04:36:05;15.63;;;2.58;;
52266;SDS011;38223;50.940;4.034;2022-09-17T04:38:33;13.43;;;2.45;;
52266;SDS011;38223;50.940;4.034;2022-09-17T04:41:06;11.83;;;2.15;;
52266;SDS011;38223;50.940;4.034;2022-09-17T04:43:38;19.02;;;2.50;;
52266;SDS011;38223;50.940;4.034;2022-09-17T04:46:19;12.33;;;2.17;;
52266;SDS011;38223;50.940;4.034;2022-09-17T04:48:50;10.93;;;2.40;;
52266;SDS011;38223;50.940;4.034;2022-09-17T04:51:24;15.05;;;2.33;;
52266;SDS011;38223;50.940;4.034;2022-09-17T04:53:54;15.72;;;2.62;;
52266;SDS011;38223;50.940;4.034;2022-09-17T04:56:31;11.45;;;2.80;;
52266;SDS011;38223;50.940;4.034;2022-09-17T04:59:03;14.85;;;2.25;;
52266;SDS011;38223;50.940;4.034;2022-09-17T05:01:40;16.32;;;2.02;;
52266;SDS011;38223;50.940;4.034;2022-09-17T05:04:12;8.68;;;2.15;;
52266;SDS011;38223;50.940;4.034;2022-09-17T05:06:44;14.95;;;2.75;;
52266;SDS011;38223;50.940;4.034;2022-09-17T05:09:17;12.58;;;1.92;;
52266;SDS011;38223;50.940;4.034;2022-09-17T05:11:50;13.30;;;2.30;;
52266;SDS011;38223;50.940;4.034;2022-09-17T05:14:26;14.87;;;2.25;;
52266;SDS011;38223;50.940;4.034;2022-09-17T05:17:01;14.90;;;2.47;;
52266;SDS011;38223;50.940;4.034;2022-09-17T05:19:40;7.50;;;1.60;;
52266;SDS011;38223;50.940;4.034;2022-09-17T05:22:28;8.93;;;1.50;;
52266;SDS011;38223;50.940;4.034;2022-09-17T05:24:58;13.98;;;2.15;;
52266;SDS011;38223;50.940;4.034;2022-09-17T05:27:33;11.12;;;2.10;;
52266;SDS011;38223;50.940;4.034;2022-09-17T05:30:07;12.15;;;2.12;;
52266;SDS011;38223;50.940;4.034;2022-09-17T05:32:40;10.13;;;1.60;;
52266;SDS011;38223;50.940;4.034;2022-09-17T05:35:17;13.62;;;2.37;;
52266;SDS011;38223;50.940;4.034;2022-09-17T05:37:55;11.57;;;1.90;;
52266;SDS011;38223;50.940;4.034;2022-09-17T05:40:31;8.77;;;1.83;;
52266;SDS011;38223;50.940;4.034;2022-09-17T05:43:05;10.13;;;1.67;;
52266;SDS011;38223;50.940;4.034;2022-09-17T05:45:38;14.38;;;2.30;;
52266;SDS011;38223;50.940;4.034;2022-09-17T05:48:15;10.00;;;1.87;;
52266;SDS011;38223;50.940;4.034;2022-09-17T05:50:46;12.28;;;1.72;;
52266;SDS011;38223;50.940;4.034;2022-09-17T05:53:20;8.75;;;1.60;;
52266;SDS011;38223;50.940;4.034;2022-09-17T05:55:58;14.18;;;2.15;;
52266;SDS011;38223;50.940;4.034;2022-09-17T05:58:28;11.97;;;1.87;;
52266;SDS011;38223;50.940;4.034;2022-09-17T06:01:01;10.30;;;1.70;;
52266;SDS011;38223;50.940;4.034;2022-09-17T06:03:39;11.18;;;1.60;;
52266;SDS011;38223;50.940;4.034;2022-09-17T06:06:15;12.55;;;1.80;;
52266;SDS011;38223;50.940;4.034;2022-09-17T06:08:43;11.28;;;2.00;;
52266;SDS011;38223;50.940;4.034;2022-09-17T06:11:19;8.33;;;1.98;;
52266;SDS011;38223;50.940;4.034;2022-09-17T06:13:53;14.40;;;1.92;;
52266;SDS011;38223;50.940;4.034;2022-09-17T06:16:24;12.53;;;2.10;;
52266;SDS011;38223;50.940;4.034;2022-09-17T06:19:00;9.28;;;1.65;;
52266;SDS011;38223;50.940;4.034;2022-09-17T06:21:36;9.28;;;2.12;;
52266;SDS011;38223;50.940;4.034;2022-09-17T06:24:08;8.03;;;1.67;;
52266;SDS011;38223;50.940;4.034;2022-09-17T06:26:48;11.53;;;1.77;;
52266;SDS011;38223;50.940;4.034;2022-09-17T06:29:19;9.43;;;1.50;;
52266;SDS011;38223;50.940;4.034;2022-09-17T06:31:54;10.65;;;1.77;;
52266;SDS011;38223;50.940;4.034;2022-09-17T06:34:26;10.45;;;1.98;;
52266;SDS011;38223;50.940;4.034;2022-09-17T06:37:01;9.78;;;2.00;;
52266;SDS011;38223;50.940;4.034;2022-09-17T06:39:33;11.30;;;2.10;;
52266;SDS011;38223;50.940;4.034;2022-09-17T06:42:05;8.45;;;1.80;;
52266;SDS011;38223;50.940;4.034;2022-09-17T06:44:40;11.75;;;2.35;;
52266;SDS011;38223;50.940;4.034;2022-09-17T06:47:12;11.08;;;2.15;;
52266;SDS011;38223;50.940;4.034;2022-09-17T06:49:46;12.37;;;2.27;;
52266;SDS011;38223;50.940;4.034;2022-09-17T06:52:16;9.38;;;1.60;;
52266;SDS011;38223;50.940;4.034;2022-09-17T06:54:44;8.03;;;1.60;;
52266;SDS011;38223;50.940;4.034;2022-09-17T06:57:13;7.42;;;1.42;;
52266;SDS011;38223;50.940;4.034;2022-09-17T06:59:46;6.58;;;1.40;;
52266;SDS011;38223;50.940;4.034;2022-09-17T07:02:22;5.42;;;1.20;;
52266;SDS011;38223;50.940;4.034;2022-09-17T07:04:57;12.15;;;2.25;;
52266;SDS011;38223;50.940;4.034;2022-09-17T07:07:32;8.83;;;1.30;;
52266;SDS011;38223;50.940;4.034;2022-09-17T07:10:06;8.93;;;1.55;;
52266;SDS011;38223;50.940;4.034;2022-09-17T07:12:44;13.03;;;1.72;;
52266;SDS011;38223;50.940;4.034;2022-09-17T07:15:21;8.05;;;1.80;;
52266;SDS011;38223;50.940;4.034;2022-09-17T07:18:00;8.05;;;1.85;;
52266;SDS011;38223;50.940;4.034;2022-09-17T07:20:31;7.10;;;1.30;;
52266;SDS011;38223;50.940;4.034;2022-09-17T07:23:05;7.08;;;1.60;;
52266;SDS011;38223;50.940;4.034;2022-09-17T07:25:39;8.63;;;1.62;;
52266;SDS011;38223;50.940;4.034;2022-09-17T07:28:11;10.30;;;1.77;;
52266;SDS011;38223;50.940;4.034;2022-09-17T07:30:44;10.65;;;1.50;;
52266;SDS011;38223;50.940;4.034;2022-09-17T07:33:22;9.65;;;1.35;;
52266;SDS011;38223;50.940;4.034;2022-09-17T07:36:01;12.17;;;1.93;;
52266;SDS011;38223;50.940;4.034;2022-09-17T07:38:34;7.65;;;1.62;;
52266;SDS011;38223;50.940;4.034;2022-09-17T07:41:04;9.68;;;1.60;;
52266;SDS011;38223;50.940;4.034;2022-09-17T07:43:35;7.80;;;1.92;;
52266;SDS011;38223;50.940;4.034;2022-09-17T07:46:12;12.45;;;2.30;;
52266;SDS011;38223;50.940;4.034;2022-09-17T07:48:44;8.40;;;1.50;;
52266;SDS011;38223;50.940;4.034;2022-09-17T07:51:24;9.68;;;2.25;;
52266;SDS011;38223;50.940;4.034;2022-09-17T07:53:59;3.95;;;1.30;;
52266;SDS011;38223;50.940;4.034;2022-09-17T07:56:32;6.00;;;1.20;;
52266;SDS011;38223;50.940;4.034;2022-09-17T07:59:08;8.18;;;1.62;;
52266;SDS011;38223;50.940;4.034;2022-09-17T08:01:41;9.30;;;1.50;;
52266;SDS011;38223;50.940;4.034;2022-09-17T08:04:19;6.08;;;1.80;;
52266;SDS011;38223;50.940;4.034;2022-09-17T08:06:47;7.08;;;1.50;;
52266;SDS011;38223;50.940;4.034;2022-09-17T08:09:19;4.83;;;1.05;;
52266;SDS011;38223;50.940;4.034;2022-09-17T08:11:53;7.87;;;0.90;;
52266;SDS011;38223;50.940;4.034;2022-09-17T08:14:29;5.53;;;1.42;;
52266;SDS011;38223;50.940;4.034;2022-09-17T08:16:59;4.92;;;1.00;;
52266;SDS011;38223;50.940;4.034;2022-09-17T08:19:31;8.60;;;0.95;;
52266;SDS011;38223;50.940;4.034;2022-09-17T08:22:02;6.72;;;1.40;;
52266;SDS011;38223;50.940;4.034;2022-09-17T08:24:39;6.00;;;1.02;;
52266;SDS011;38223;50.940;4.034;2022-09-17T08:27:09;5.90;;;1.20;;
52266;SDS011;38223;50.940;4.034;2022-09-17T08:29:44;6.78;;;1.20;;
52266;SDS011;38223;50.940;4.034;2022-09-17T08:32:14;6.10;;;0.75;;
52266;SDS011;38223;50.940;4.034;2022-09-17T08:34:51;6.87;;;1.00;;
52266;SDS011;38223;50.940;4.034;2022-09-17T08:37:22;6.70;;;1.50;;
52266;SDS011;38223;50.940;4.034;2022-09-17T08:39:58;7.87;;;1.30;;
52266;SDS011;38223;50.940;4.034;2022-09-17T08:42:36;6.03;;;1.10;;
52266;SDS011;38223;50.940;4.034;2022-09-17T08:45:08;4.42;;;0.95;;
52266;SDS011;38223;50.940;4.034;2022-09-17T08:47:42;6.95;;;0.82;;
52266;SDS011;38223;50.940;4.034;2022-09-17T08:50:28;4.92;;;0.90;;
52266;SDS011;38223;50.940;4.034;2022-09-17T08:53:06;2.90;;;0.93;;
52266;SDS011;38223;50.940;4.034;2022-09-17T08:55:50;6.72;;;1.07;;
52266;SDS011;38223;50.940;4.034;2022-09-17T09:07:06;9.80;;;1.30;;
52266;SDS011;38223;50.940;4.034;2022-09-17T09:09:34;7.80;;;1.37;;
52266;SDS011;38223;50.940;4.034;2022-09-17T09:12:12;8.15;;;1.10;;
52266;SDS011;38223;50.940;4.034;2022-09-17T09:17:33;9.63;;;1.92;;
52266;SDS011;38223;50.940;4.034;2022-09-17T09:20:04;5.05;;;1.25;;
52266;SDS011;38223;50.940;4.034;2022-09-17T09:22:51;6.30;;;1.30;;
52266;SDS011;38223;50.940;4.034;2022-09-17T09:25:35;7.28;;;1.70;;
52266;SDS011;38223;50.940;4.034;2022-09-17T09:31:02;8.68;;;2.42;;
52266;SDS011;38223;50.940;4.034;2022-09-17T09:33:36;10.15;;;2.45;;
52266;SDS011;38223;50.940;4.034;2022-09-17T09:36:15;8.40;;;1.45;;
52266;SDS011;38223;50.940;4.034;2022-09-17T09:41:33;4.28;;;1.22;;
52266;SDS011;38223;50.940;4.034;2022-09-17T09:44:11;5.70;;;0.80;;
52266;SDS011;38223;50.940;4.034;2022-09-17T09:55:22;3.42;;;1.02;;
52266;SDS011;38223;50.940;4.034;2022-09-17T09:58:16;3.60;;;0.80;;
52266;SDS011;38223;50.940;4.034;2022-09-17T10:00:50;4.05;;;0.80;;
52266;SDS011;38223;50.940;4.034;2022-09-17T10:03:28;4.92;;;0.80;;
52266;SDS011;38223;50.940;4.034;2022-09-17T10:06:02;2.08;;;0.60;;
52266;SDS011;38223;50.940;4.034;2022-09-17T10:08:41;2.25;;;0.57;;
52266;SDS011;38223;50.940;4.034;2022-09-17T10:11:28;3.67;;;0.75;;
52266;SDS011;38223;50.940;4.034;2022-09-17T10:22:43;4.22;;;0.80;;
52266;SDS011;38223;50.940;4.034;2022-09-17T10:25:40;3.02;;;0.60;;
52266;SDS011;38223;50.940;4.034;2022-09-17T10:28:10;5.50;;;1.00;;
52266;SDS011;38223;50.940;4.034;2022-09-17T10:30:53;3.62;;;0.80;;
52266;SDS011;38223;50.940;4.034;2022-09-17T10:33:22;3.17;;;0.95;;
52266;SDS011;38223;50.940;4.034;2022-09-17T10:36:03;4.40;;;0.90;;
52266;SDS011;38223;50.940;4.034;2022-09-17T10:38:39;3.37;;;0.68;;
52266;SDS011;38223;50.940;4.034;2022-09-17T10:41:17;2.12;;;0.45;;
52266;SDS011;38223;50.940;4.034;2022-09-17T10:43:51;2.95;;;0.82;;
52266;SDS011;38223;50.940;4.034;2022-09-17T10:46:26;5.97;;;1.40;;
52266;SDS011;38223;50.940;4.034;2022-09-17T10:49:04;3.37;;;1.15;;
52266;SDS011;38223;50.940;4.034;2022-09-17T10:51:38;3.17;;;1.00;;
52266;SDS011;38223;50.940;4.034;2022-09-17T10:54:18;6.87;;;1.45;;
52266;SDS011;38223;50.940;4.034;2022-09-17T10:57:04;6.00;;;1.37;;
52266;SDS011;38223;50.940;4.034;2022-09-17T10:59:46;5.03;;;1.30;;
52266;SDS011;38223;50.940;4.034;2022-09-17T11:02:27;6.78;;;1.50;;
52266;SDS011;38223;50.940;4.034;2022-09-17T11:05:06;5.42;;;1.25;;
52266;SDS011;38223;50.940;4.034;2022-09-17T11:07:46;4.67;;;1.00;;
52266;SDS011;38223;50.940;4.034;2022-09-17T11:10:29;5.78;;;1.32;;
52266;SDS011;38223;50.940;4.034;2022-09-17T11:13:11;5.75;;;1.60;;
52266;SDS011;38223;50.940;4.034;2022-09-17T11:21:55;7.28;;;2.00;;
52266;SDS011;38223;50.940;4.034;2022-09-17T11:27:16;7.55;;;1.27;;
52266;SDS011;38223;50.940;4.034;2022-09-17T11:32:42;5.30;;;1.20;;
52266;SDS011;38223;50.940;4.034;2022-09-17T11:40:49;7.65;;;2.08;;
52266;SDS011;38223;50.940;4.034;2022-09-17T11:51:33;6.92;;;1.35;;
52266;SDS011;38223;50.940;4.034;2022-09-17T11:57:06;8.53;;;2.00;;
52266;SDS011;38223;50.940;4.034;2022-09-17T12:00:01;10.95;;;1.60;;
52266;SDS011;38223;50.940;4.034;2022-09-17T12:05:21;4.42;;;1.05;;
52266;SDS011;38223;50.940;4.034;2022-09-17T12:11:01;7.58;;;1.72;;
52266;SDS011;38223;50.940;4.034;2022-09-17T12:13:48;8.85;;;1.92;;
52266;SDS011;38223;50.940;4.034;2022-09-17T12:16:41;9.20;;;1.77;;
52266;SDS011;38223;50.940;4.034;2022-09-17T12:22:22;9.00;;;1.50;;
52266;SDS011;38223;50.940;4.034;2022-09-17T12:25:02;13.48;;;2.27;;
52266;SDS011;38223;50.940;4.034;2022-09-17T12:30:35;13.62;;;2.25;;
52266;SDS011;38223;50.940;4.034;2022-09-17T12:42:21;9.63;;;1.82;;
52266;SDS011;38223;50.940;4.034;2022-09-17T12:51:09;14.58;;;1.92;;
52266;SDS011;38223;50.940;4.034;2022-09-17T12:53:39;7.37;;;2.05;;
52266;SDS011;38223;50.940;4.034;2022-09-17T12:59:17;8.13;;;1.70;;
52266;SDS011;38223;50.940;4.034;2022-09-17T13:01:52;12.33;;;1.80;;
52266;SDS011;38223;50.940;4.034;2022-09-17T13:15:45;6.95;;;1.20;;
52266;SDS011;38223;50.940;4.034;2022-09-17T13:18:26;6.97;;;1.37;;
52266;SDS011;38223;50.940;4.034;2022-09-17T13:20:58;5.45;;;1.67;;
52266;SDS011;38223;50.940;4.034;2022-09-17T13:23:46;7.35;;;1.47;;
52266;SDS011;38223;50.940;4.034;2022-09-17T13:26:33;9.38;;;1.32;;
52266;SDS011;38223;50.940;4.034;2022-09-17T13:32:50;6.87;;;1.10;;
52266;SDS011;38223;50.940;4.034;2022-09-17T13:38:06;10.82;;;1.55;;
52266;SDS011;38223;50.940;4.034;2022-09-17T13:40:25;6.37;;;1.32;;
52266;SDS011;38223;50.940;4.034;2022-09-17T13:48:42;7.28;;;1.30;;
52266;SDS011;38223;50.940;4.034;2022-09-17T13:54:04;6.00;;;1.25;;
52266;SDS011;38223;50.940;4.034;2022-09-17T13:56:42;7.45;;;1.12;;
52266;SDS011;38223;50.940;4.034;2022-09-17T13:59:12;7.37;;;1.95;;
52266;SDS011;38223;50.940;4.034;2022-09-17T14:02:01;6.47;;;1.30;;
52266;SDS011;38223;50.940;4.034;2022-09-17T14:04:47;6.37;;;1.75;;
52266;SDS011;38223;50.940;4.034;2022-09-17T14:07:43;8.98;;;2.37;;
52266;SDS011;38223;50.940;4.034;2022-09-17T14:13:26;7.12;;;1.67;;
52266;SDS011;38223;50.940;4.034;2022-09-17T14:15:58;7.75;;;1.47;;
52266;SDS011;38223;50.940;4.034;2022-09-17T14:18:35;8.73;;;1.30;;
52266;SDS011;38223;50.940;4.034;2022-09-17T14:21:26;5.95;;;1.50;;
52266;SDS011;38223;50.940;4.034;2022-09-17T14:24:17;4.45;;;0.80;;
52266;SDS011;38223;50.940;4.034;2022-09-17T14:35:41;4.87;;;1.40;;
52266;SDS011;38223;50.940;4.034;2022-09-17T14:38:41;6.85;;;1.90;;
52266;SDS011;38223;50.940;4.034;2022-09-17T14:41:23;7.87;;;2.02;;
52266;SDS011;38223;50.940;4.034;2022-09-17T14:43:55;6.17;;;1.95;;
52266;SDS011;38223;50.940;4.034;2022-09-17T14:46:44;4.08;;;1.05;;
52266;SDS011;38223;50.940;4.034;2022-09-17T14:49:24;3.30;;;0.90;;
52266;SDS011;38223;50.940;4.034;2022-09-17T14:52:25;2.40;;;0.60;;
52266;SDS011;38223;50.940;4.034;2022-09-17T14:57:52;3.35;;;0.80;;
52266;SDS011;38223;50.940;4.034;2022-09-17T15:00:31;3.37;;;0.85;;
52266;SDS011;38223;50.940;4.034;2022-09-17T15:03:05;2.62;;;0.90;;
52266;SDS011;38223;50.940;4.034;2022-09-17T15:05:46;5.65;;;0.80;;
52266;SDS011;38223;50.940;4.034;2022-09-17T15:08:16;2.50;;;1.15;;
52266;SDS011;38223;50.940;4.034;2022-09-17T15:11:03;3.95;;;0.70;;
52266;SDS011;38223;50.940;4.034;2022-09-17T15:13:49;3.70;;;0.80;;
52266;SDS011;38223;50.940;4.034;2022-09-17T15:16:29;2.83;;;0.42;;
52266;SDS011;38223;50.940;4.034;2022-09-17T15:19:01;2.83;;;0.55;;
52266;SDS011;38223;50.940;4.034;2022-09-17T15:21:43;3.58;;;0.55;;
52266;SDS011;38223;50.940;4.034;2022-09-17T15:27:33;2.25;;;0.40;;
52266;SDS011;38223;50.940;4.034;2022-09-17T15:30:20;3.20;;;0.88;;
52266;SDS011;38223;50.940;4.034;2022-09-17T15:32:52;2.47;;;0.55;;
52266;SDS011;38223;50.940;4.034;2022-09-17T15:35:32;1.75;;;0.55;;
52266;SDS011;38223;50.940;4.034;2022-09-17T15:38:01;4.42;;;1.00;;
52266;SDS011;38223;50.940;4.034;2022-09-17T15:40:39;2.33;;;0.60;;
52266;SDS011;38223;50.940;4.034;2022-09-17T15:43:21;2.27;;;0.90;;
52266;SDS011;38223;50.940;4.034;2022-09-17T15:49:01;4.90;;;0.72;;
52266;SDS011;38223;50.940;4.034;2022-09-17T15:51:35;3.60;;;1.12;;
52266;SDS011;38223;50.940;4.034;2022-09-17T15:54:24;3.50;;;0.90;;
52266;SDS011;38223;50.940;4.034;2022-09-17T15:56:43;4.87;;;1.22;;
52266;SDS011;38223;50.940;4.034;2022-09-17T15:59:27;3.72;;;1.10;;
52266;SDS011;38223;50.940;4.034;2022-09-17T16:01:59;2.67;;;0.98;;
52266;SDS011;38223;50.940;4.034;2022-09-17T16:04:30;3.85;;;1.30;;
52266;SDS011;38223;50.940;4.034;2022-09-17T16:09:47;4.03;;;1.10;;
52266;SDS011;38223;50.940;4.034;2022-09-17T16:12:27;3.02;;;0.80;;
52266;SDS011;38223;50.940;4.034;2022-09-17T16:14:56;3.98;;;1.05;;
52266;SDS011;38223;50.940;4.034;2022-09-17T16:17:31;5.42;;;1.32;;
52266;SDS011;38223;50.940;4.034;2022-09-17T16:20:12;6.83;;;0.98;;
52266;SDS011;38223;50.940;4.034;2022-09-17T16:22:44;5.03;;;1.30;;
52266;SDS011;38223;50.940;4.034;2022-09-17T16:25:27;6.05;;;1.00;;
52266;SDS011;38223;50.940;4.034;2022-09-17T16:27:56;5.30;;;0.95;;
52266;SDS011;38223;50.940;4.034;2022-09-17T16:30:45;4.12;;;1.00;;
52266;SDS011;38223;50.940;4.034;2022-09-17T16:33:18;4.55;;;0.90;;
52266;SDS011;38223;50.940;4.034;2022-09-17T16:35:58;9.18;;;1.17;;
52266;SDS011;38223;50.940;4.034;2022-09-17T16:38:31;6.00;;;1.47;;
52266;SDS011;38223;50.940;4.034;2022-09-17T16:41:11;5.00;;;1.55;;
52266;SDS011;38223;50.940;4.034;2022-09-17T16:43:43;3.25;;;1.30;;
52266;SDS011;38223;50.940;4.034;2022-09-17T16:46:34;8.33;;;1.52;;
52266;SDS011;38223;50.940;4.034;2022-09-17T16:49:07;7.90;;;1.60;;
52266;SDS011;38223;50.940;4.034;2022-09-17T16:51:38;6.83;;;1.98;;
52266;SDS011;38223;50.940;4.034;2022-09-17T16:54:07;4.97;;;1.52;;
52266;SDS011;38223;50.940;4.034;2022-09-17T16:56:35;6.53;;;1.45;;
52266;SDS011;38223;50.940;4.034;2022-09-17T16:59:02;9.70;;;1.70;;
52266;SDS011;38223;50.940;4.034;2022-09-17T17:01:35;5.65;;;1.92;;
52266;SDS011;38223;50.940;4.034;2022-09-17T17:04:03;7.72;;;1.82;;
52266;SDS011;38223;50.940;4.034;2022-09-17T17:06:35;8.10;;;1.95;;
52266;SDS011;38223;50.940;4.034;2022-09-17T17:09:05;5.22;;;1.70;;
52266;SDS011;38223;50.940;4.034;2022-09-17T17:11:36;7.33;;;1.80;;
52266;SDS011;38223;50.940;4.034;2022-09-17T17:14:06;10.40;;;1.77;;
52266;SDS011;38223;50.940;4.034;2022-09-17T17:16:38;12.40;;;2.45;;
52266;SDS011;38223;50.940;4.034;2022-09-17T17:19:07;8.47;;;2.47;;
52266;SDS011;38223;50.940;4.034;2022-09-17T17:21:36;7.20;;;2.50;;
52266;SDS011;38223;50.940;4.034;2022-09-17T17:24:10;8.00;;;2.55;;
52266;SDS011;38223;50.940;4.034;2022-09-17T17:26:45;9.70;;;2.05;;
52266;SDS011;38223;50.940;4.034;2022-09-17T17:29:17;10.68;;;2.15;;
52266;SDS011;38223;50.940;4.034;2022-09-17T17:31:45;11.38;;;2.47;;
52266;SDS011;38223;50.940;4.034;2022-09-17T17:34:19;6.35;;;2.12;;
52266;SDS011;38223;50.940;4.034;2022-09-17T17:36:49;13.38;;;2.20;;
52266;SDS011;38223;50.940;4.034;2022-09-17T17:39:22;10.03;;;2.17;;
52266;SDS011;38223;50.940;4.034;2022-09-17T17:41:51;21.62;;;3.20;;
52266;SDS011;38223;50.940;4.034;2022-09-17T17:44:25;7.97;;;2.55;;
52266;SDS011;38223;50.940;4.034;2022-09-17T17:46:58;10.50;;;2.45;;
52266;SDS011;38223;50.940;4.034;2022-09-17T17:49:36;12.95;;;3.42;;
52266;SDS011;38223;50.940;4.034;2022-09-17T17:52:05;12.43;;;3.55;;
52266;SDS011;38223;50.940;4.034;2022-09-17T17:54:33;6.58;;;2.72;;
52266;SDS011;38223;50.940;4.034;2022-09-17T17:57:04;9.80;;;3.05;;
52266;SDS011;38223;50.940;4.034;2022-09-17T17:59:35;8.93;;;2.40;;
52266;SDS011;38223;50.940;4.034;2022-09-17T18:02:09;10.08;;;3.30;;
52266;SDS011;38223;50.940;4.034;2022-09-17T18:04:46;9.95;;;2.70;;
52266;SDS011;38223;50.940;4.034;2022-09-17T18:07:16;7.78;;;3.05;;
52266;SDS011;38223;50.940;4.034;2022-09-17T18:09:47;16.70;;;3.33;;
52266;SDS011;38223;50.940;4.034;2022-09-17T18:12:19;10.78;;;2.77;;
52266;SDS011;38223;50.940;4.034;2022-09-17T18:14:50;9.18;;;2.30;;
52266;SDS011;38223;50.940;4.034;2022-09-17T18:17:21;8.93;;;2.00;;
52266;SDS011;38223;50.940;4.034;2022-09-17T18:20:07;11.38;;;2.25;;
52266;SDS011;38223;50.940;4.034;2022-09-17T18:22:39;6.15;;;1.45;;
52266;SDS011;38223;50.940;4.034;2022-09-17T18:25:12;9.08;;;2.15;;
52266;SDS011;38223;50.940;4.034;2022-09-17T18:27:49;8.68;;;1.82;;
52266;SDS011;38223;50.940;4.034;2022-09-17T18:30:20;8.68;;;2.20;;
52266;SDS011;38223;50.940;4.034;2022-09-17T18:32:53;6.95;;;1.72;;